createdAt,value
2022-09-20T00:03:23.298Z,99652.47
2022-09-20T00:08:26.106Z,99658.52
2022-09-20T00:13:30.102Z,99658.22
2022-09-20T00:18:32.931Z,99655.60
2022-09-20T00:23:36.656Z,99659.31
2022-09-20T00:28:39.660Z,99661.42
2022-09-20T00:34:01.201Z,99667.23
2022-09-20T00:39:04.350Z,99672.29
2022-09-20T00:44:41.627Z,99673.77
2022-09-20T00:49:44.760Z,99673.05
2022-09-20T00:54:49.070Z,99676.67
2022-09-20T00:59:53.047Z,99677.64
2022-09-20T01:04:57.766Z,99681.04
2022-09-20T01:10:00.645Z,99683.20
2022-09-20T01:15:05.975Z,99683.41
2022-09-20T01:20:14.850Z,99681.15
2022-09-20T01:25:45.611Z,99684.97
2022-09-20T01:31:00.294Z,99686.73
2022-09-20T01:36:06.343Z,99689.60
2022-09-20T01:41:20.642Z,99690.82
2022-09-20T01:46:34.580Z,99688.73
2022-09-20T01:51:56.653Z,99686.60
2022-09-20T01:57:08.363Z,99688.44
2022-09-20T02:02:34.370Z,99686.08
2022-09-20T02:07:59.145Z,99688.38
2022-09-20T02:13:11.553Z,99684.26
2022-09-20T02:18:26.670Z,99687.92
2022-09-20T02:23:30.066Z,99692.45
2022-09-20T02:28:58.972Z,99698.03
2022-09-20T02:34:13.856Z,99699.90
2022-09-20T02:39:35.505Z,99701.80
2022-09-20T02:44:50.283Z,99706.65
2022-09-20T02:50:01.452Z,99709.16
2022-09-20T02:55:25.480Z,99710.39
2022-09-20T03:00:40.040Z,99713.60
2022-09-20T03:05:45.424Z,99716.21
2022-09-20T03:11:12.491Z,99718.85
2022-09-20T03:16:51.911Z,99722.95
2022-09-20T03:22:02.329Z,99724.27
2022-09-20T03:27:31.960Z,99724.33
2022-09-20T03:32:40.807Z,99728.86
2022-09-20T03:38:02.118Z,99739.10
2022-09-20T03:43:26.350Z,99741.48
2022-09-20T03:48:47.576Z,99743.60
2022-09-20T03:54:08.915Z,99752.05
2022-09-20T03:59:32.097Z,99756.39
2022-09-20T04:04:44.828Z,99757.40
2022-09-20T04:10:18.760Z,99760.34
2022-09-20T04:15:43.591Z,99762.34
2022-09-20T04:21:17.541Z,99767.65
2022-09-20T04:26:28.501Z,99773.80
2022-09-20T04:31:54.530Z,99770.70
2022-09-20T04:37:02.872Z,99771.27
2022-09-20T04:42:11.625Z,99777.19
2022-09-20T04:47:55.997Z,99781.30
2022-09-20T04:53:04.429Z,99777.02
2022-09-20T04:58:37.747Z,99788.31
2022-09-20T05:03:55.498Z,99791.84
2022-09-20T05:09:29.329Z,99799.87
2022-09-20T05:14:47.286Z,99808.76
2022-09-20T05:20:24.494Z,99816.67
2022-09-20T05:25:42.142Z,99823.35
2022-09-20T05:30:48.085Z,99829.65
2022-09-20T05:36:12.737Z,99827.54
2022-09-20T05:41:37.487Z,99824.81
2022-09-20T05:46:46.088Z,99827.98
2022-09-20T05:51:59.436Z,99831.55
2022-09-20T05:57:39.108Z,99843.58
2022-09-20T06:02:44.770Z,99844.99
2022-09-20T06:08:03.818Z,99848.17
2022-09-20T06:13:31.644Z,99847.86
2022-09-20T06:18:34.457Z,99849.43
2022-09-20T06:23:37.551Z,99857.05
2022-09-20T06:28:45.731Z,99864.50
2022-09-20T06:34:03.195Z,99870.41
2022-09-20T06:40:02.520Z,99867.34
2022-09-20T06:45:05.972Z,99867.12
2022-09-20T06:50:16.514Z,99872.34
2022-09-20T06:55:29.008Z,99874.02
2022-09-20T07:00:32.291Z,99880.05
2022-09-20T07:05:36.443Z,99887.42
2022-09-20T07:10:39.843Z,99891.60
2022-09-20T07:15:43.268Z,99898.30
2022-09-20T07:20:46.468Z,99901.61
2022-09-20T07:25:49.382Z,99900.64
2022-09-20T07:30:52.277Z,99897.67
2022-09-20T07:35:56.146Z,99903.83
2022-09-20T07:41:02.377Z,99912.02
2022-09-20T07:46:06.221Z,99910.58
2022-09-20T07:51:13.005Z,99910.27
2022-09-20T07:56:18.851Z,99913.21
2022-09-20T08:01:22.912Z,99909.86
2022-09-20T08:06:27.045Z,99912.20
2022-09-20T08:11:30.969Z,99911.70
2022-09-20T08:16:38.775Z,99925.91
2022-09-20T08:21:41.796Z,99921.22
2022-09-20T08:26:45.946Z,99927.48
2022-09-20T08:31:49.103Z,99926.66
2022-09-20T08:36:56.687Z,99928.84
2022-09-20T08:42:15.323Z,99935.45
2022-09-20T08:47:23.774Z,99931.92
2022-09-20T08:52:36.649Z,99931.28
2022-09-20T08:57:40.012Z,99937.55
2022-09-20T09:02:42.913Z,99936.73
2022-09-20T09:07:47.150Z,99943.80
2022-09-20T09:12:51.181Z,99943.69
2022-09-20T09:17:54.126Z,99940.20
2022-09-20T09:23:06.975Z,99942.69
2022-09-20T09:28:09.723Z,99944.42
2022-09-20T09:33:30.219Z,99943.75
2022-09-20T09:38:36.419Z,99935.11
2022-09-20T09:43:40.612Z,99930.13
2022-09-20T09:48:47.668Z,99935.90
2022-09-20T09:53:51.686Z,99941.40
2022-09-20T09:59:17.358Z,99939.55
2022-09-20T10:04:43.167Z,99941.13
2022-09-20T10:10:04.450Z,99944.83
2022-09-20T10:15:36.970Z,99942.96
2022-09-20T10:21:13.796Z,99937.42
2022-09-20T10:26:26.636Z,99933.69
2022-09-20T10:31:45.106Z,99935.50
2022-09-20T10:36:55.936Z,99937.13
2022-09-20T10:42:36.788Z,99945.44
2022-09-20T10:48:09.488Z,99956.10
2022-09-20T10:53:31.141Z,99970.98
2022-09-20T10:59:12.864Z,99979.15
2022-09-20T11:04:18.414Z,99978.20
2022-09-20T11:09:27.270Z,99978.22
2022-09-20T11:14:41.250Z,99980.77
2022-09-20T11:19:56.830Z,99983.60
2022-09-20T11:25:47.493Z,99980.05
2022-09-20T11:30:56.405Z,99987.16
2022-09-20T11:36:06.771Z,99991.42
2022-09-20T11:41:15.612Z,99994.47
2022-09-20T11:46:28.041Z,100012.88
2022-09-20T11:51:52.793Z,100013.27
2022-09-20T11:56:57.929Z,100015.84
2022-09-20T12:02:05.349Z,100010.20
2022-09-20T12:07:18.253Z,100011.98
2022-09-20T12:12:44.148Z,100013.55
2022-09-20T12:17:47.009Z,100016.10
2022-09-20T12:22:50.327Z,100011.63
2022-09-20T12:27:53.120Z,100015.50
2022-09-20T12:33:03.613Z,100016.11
2022-09-20T12:38:21.562Z,100019.70
2022-09-20T12:43:29.422Z,100024.39
2022-09-20T12:48:37.299Z,100027.95
2022-09-20T12:53:40.616Z,100029.60
2022-09-20T12:58:54.779Z,100033.52
2022-09-20T13:04:40.488Z,100032.82
2022-09-20T13:09:44.515Z,100031.33
2022-09-20T13:14:48.143Z,100029.37
2022-09-20T13:19:53.092Z,100041.56
2022-09-20T13:25:07.486Z,100042.67
2022-09-20T13:30:22.246Z,100047.61
2022-09-20T13:35:32.471Z,100050.98
2022-09-20T13:40:36.800Z,100053.55
2022-09-20T13:45:43.722Z,100054.24
2022-09-20T13:50:52.753Z,100061.05
2022-09-20T13:55:56.837Z,100058.66
2022-09-20T14:01:06.396Z,100056.98
2022-09-20T14:06:15.298Z,100058.70
2022-09-20T14:11:31.166Z,100061.72
2022-09-20T14:16:39.377Z,100068.64
2022-09-20T14:21:43.673Z,100075.30
2022-09-20T14:27:21.130Z,100082.23
2022-09-20T14:32:35.913Z,100086.88
2022-09-20T14:37:48.454Z,100093.19
2022-09-20T14:43:03.598Z,100096.52
2022-09-20T14:48:26.402Z,100096.52
2022-09-20T14:53:29.826Z,100097.63
2022-09-20T14:58:34.483Z,100100.27
2022-09-20T15:03:41.309Z,100102.09
2022-09-20T15:08:46.783Z,100102.61
2022-09-20T15:13:49.934Z,100108.07
2022-09-20T15:18:52.737Z,100112.15
2022-09-20T15:23:55.638Z,100116.74
2022-09-20T15:28:58.851Z,100115.70
2022-09-20T15:34:01.753Z,100120.02
2022-09-20T15:39:05.276Z,100121.87
2022-09-20T15:44:08.484Z,100126.95
2022-09-20T15:49:12.512Z,100136.27
2022-09-20T15:54:15.732Z,100142.23
2022-09-20T15:59:21.804Z,100141.25
2022-09-20T16:04:27.270Z,100146.62
2022-09-20T16:09:30.886Z,100151.63
2022-09-20T16:14:36.656Z,100152.88
2022-09-20T16:19:40.429Z,100154.67
2022-09-20T16:24:43.698Z,100157.67
2022-09-20T16:29:47.702Z,100162.19
2022-09-20T16:34:51.426Z,100166.46
2022-09-20T16:39:54.338Z,100175.89
2022-09-20T16:44:57.459Z,100178.27
2022-09-20T16:50:00.574Z,100184.46
2022-09-20T16:55:05.138Z,100194.68
2022-09-20T17:00:10.718Z,100196.64
2022-09-20T17:05:14.400Z,100207.30
2022-09-20T17:10:17.304Z,100210.16
2022-09-20T17:15:20.223Z,100215.73
2022-09-20T17:20:30.999Z,100221.20
2022-09-20T17:25:33.902Z,100226.70
2022-09-20T17:30:36.807Z,100235.44
2022-09-20T17:35:39.715Z,100234.88
2022-09-20T17:40:43.422Z,100233.20
2022-09-20T17:45:46.233Z,100235.10
2022-09-20T17:50:58.152Z,100237.67
2022-09-20T17:56:02.248Z,100242.83
2022-09-20T18:01:12.800Z,100250.50
2022-09-20T18:06:18.950Z,100255.30
2022-09-20T18:11:27.349Z,100258.98
2022-09-20T18:16:33.711Z,100257.60
2022-09-20T18:21:39.368Z,100264.29
2022-09-20T18:26:42.337Z,100274.03
2022-09-20T18:31:50.684Z,100278.19
2022-09-20T18:36:56.236Z,100281.37
2022-09-20T18:42:00.231Z,100284.95
2022-09-20T18:47:05.016Z,100291.77
2022-09-20T18:52:10.890Z,100288.44
2022-09-20T18:57:15.660Z,100291.66
2022-09-20T19:03:11.171Z,100292.36
2022-09-20T19:08:53.807Z,100300.95
2022-09-20T19:14:29.390Z,100309.01
2022-09-20T19:19:51.225Z,100314.02
2022-09-20T19:25:03.560Z,100312.65
2022-09-20T19:30:07.707Z,100319.14
2022-09-20T19:35:28.474Z,100324.02
2022-09-20T19:41:18.312Z,100328.48
2022-09-20T19:46:37.006Z,100328.00
2022-09-20T19:51:43.044Z,100329.38
2022-09-20T19:56:58.835Z,100333.92
2022-09-20T20:02:02.701Z,100339.05
2022-09-20T20:07:27.706Z,100340.21
2022-09-20T20:12:38.305Z,100341.98
2022-09-20T20:18:12.254Z,100346.59
2022-09-20T20:23:32.955Z,100351.21
2022-09-20T20:28:36.950Z,100350.33
2022-09-20T20:33:40.195Z,100353.77
2022-09-20T20:38:52.441Z,100357.90
2022-09-20T20:43:56.453Z,100359.79
2022-09-20T20:48:59.454Z,100366.47
2022-09-20T20:54:04.882Z,100373.94
2022-09-20T20:59:07.929Z,100374.77
2022-09-20T21:04:11.545Z,100374.36
2022-09-20T21:09:14.350Z,100379.73
2022-09-20T21:14:17.360Z,100383.98
2022-09-20T21:19:21.079Z,100385.71
2022-09-20T21:24:23.982Z,100386.67
2022-09-20T21:29:26.783Z,100386.08
2022-09-20T21:34:29.686Z,100387.61
2022-09-20T21:39:32.489Z,100390.25
2022-09-20T21:44:35.394Z,100389.65
2022-09-20T21:49:38.604Z,100392.04
2022-09-20T21:54:42.542Z,100395.46
2022-09-20T21:59:45.334Z,100393.59
2022-09-20T22:04:48.259Z,100396.94
2022-09-20T22:09:51.038Z,100397.52
2022-09-20T22:14:53.842Z,100398.48
2022-09-20T22:19:57.050Z,100401.39
2022-09-20T22:24:59.852Z,100405.99
2022-09-20T22:30:05.117Z,100408.70
2022-09-20T22:35:08.977Z,100416.99
2022-09-20T22:40:11.865Z,100417.06
2022-09-20T22:45:14.763Z,100421.14
2022-09-20T22:50:17.652Z,100423.78
2022-09-20T22:55:20.552Z,100423.07
2022-09-20T23:00:23.559Z,100424.27
2022-09-20T23:05:27.662Z,100419.76
2022-09-20T23:10:30.494Z,100421.56
2022-09-20T23:15:33.914Z,100421.24
2022-09-20T23:20:36.814Z,100419.17
2022-09-20T23:25:39.719Z,100425.27
2022-09-20T23:30:42.649Z,100420.58
2022-09-20T23:35:46.044Z,100428.81
2022-09-20T23:40:48.843Z,100429.56
2022-09-20T23:45:51.783Z,100430.13
2022-09-20T23:50:55.262Z,100432.98
2022-09-20T23:55:58.369Z,100431.92
